sensor_id;sensor_type;location;lat;lon;timestamp;pressure;altitude;pressure_sealevel;temperature;humidity
80648;BME280;70012;0.000;0.000;2023-11-19T00:00:07;100181.00;;;9.87;91.89
80648;BME280;70012;0.000;0.000;2023-11-19T00:02:40;100181.00;;;9.87;92.49
80648;BME280;70012;0.000;0.000;2023-11-19T00:05:09;100182.34;;;9.85;92.56
80648;BME280;70012;0.000;0.000;2023-11-19T00:07:39;100197.41;;;9.87;92.33
80648;BME280;70012;0.000;0.000;2023-11-19T00:10:09;100186.47;;;9.87;92.35
80648;BME280;70012;0.000;0.000;2023-11-19T00:12:38;100176.38;;;9.88;92.73
80648;BME280;70012;0.000;0.000;2023-11-19T00:15:06;100174.22;;;9.90;92.77
80648;BME280;70012;0.000;0.000;2023-11-19T00:17:40;100164.59;;;9.87;92.93
80648;BME280;70012;0.000;0.000;2023-11-19T00:20:12;100162.44;;;9.89;92.84
80648;BME280;70012;0.000;0.000;2023-11-19T00:22:41;100164.09;;;9.90;93.17
80648;BME280;70012;0.000;0.000;2023-11-19T00:25:13;100157.81;;;9.90;93.10
80648;BME280;70012;0.000;0.000;2023-11-19T00:27:40;100152.34;;;9.90;93.17
80648;BME280;70012;0.000;0.000;2023-11-19T00:30:07;100146.03;;;9.89;93.54
80648;BME280;70012;0.000;0.000;2023-11-19T00:32:36;100155.38;;;9.93;93.75
80648;BME280;70012;0.000;0.000;2023-11-19T00:35:05;100136.16;;;9.88;93.29
80648;BME280;70012;0.000;0.000;2023-11-19T00:37:32;100143.03;;;9.91;93.23
80648;BME280;70012;0.000;0.000;2023-11-19T00:39:59;100150.69;;;9.89;93.04
80648;BME280;70012;0.000;0.000;2023-11-19T00:42:25;100170.69;;;9.94;92.96
80648;BME280;70012;0.000;0.000;2023-11-19T00:44:53;100167.47;;;9.98;93.55
80648;BME280;70012;0.000;0.000;2023-11-19T00:47:20;100160.94;;;9.99;93.59
80648;BME280;70012;0.000;0.000;2023-11-19T00:49:47;100152.41;;;9.95;93.60
80648;BME280;70012;0.000;0.000;2023-11-19T00:52:17;100163.72;;;10.04;93.56
80648;BME280;70012;0.000;0.000;2023-11-19T00:54:44;100165.38;;;10.05;93.76
80648;BME280;70012;0.000;0.000;2023-11-19T00:57:11;100144.84;;;10.02;94.28
80648;BME280;70012;0.000;0.000;2023-11-19T00:59:38;100147.31;;;10.04;94.24
80648;BME280;70012;0.000;0.000;2023-11-19T01:02:04;100146.88;;;10.12;94.15
80648;BME280;70012;0.000;0.000;2023-11-19T01:04:34;100140.31;;;10.13;94.26
80648;BME280;70012;0.000;0.000;2023-11-19T01:07:02;100114.97;;;10.01;94.08
80648;BME280;70012;0.000;0.000;2023-11-19T01:09:31;100132.44;;;10.17;94.53
80648;BME280;70012;0.000;0.000;2023-11-19T01:12:02;100130.50;;;10.17;94.28
80648;BME280;70012;0.000;0.000;2023-11-19T01:14:29;100134.91;;;10.18;94.63
80648;BME280;70012;0.000;0.000;2023-11-19T01:16:56;100130.50;;;10.17;94.47
80648;BME280;70012;0.000;0.000;2023-11-19T01:19:24;100122.56;;;10.16;94.32
80648;BME280;70012;0.000;0.000;2023-11-19T01:21:51;100130.50;;;10.17;94.30
80648;BME280;70012;0.000;0.000;2023-11-19T01:24:18;100126.16;;;10.21;94.79
80648;BME280;70012;0.000;0.000;2023-11-19T01:26:45;100137.09;;;10.21;94.47
80648;BME280;70012;0.000;0.000;2023-11-19T01:29:15;100127.78;;;10.17;94.63
80648;BME280;70012;0.000;0.000;2023-11-19T01:31:42;100134.94;;;10.23;94.70
80648;BME280;70012;0.000;0.000;2023-11-19T01:34:10;100123.38;;;10.16;94.36
80648;BME280;70012;0.000;0.000;2023-11-19T01:36:38;100129.47;;;10.23;94.43
80648;BME280;70012;0.000;0.000;2023-11-19T01:39:06;100130.25;;;10.19;94.59
80648;BME280;70012;0.000;0.000;2023-11-19T01:41:36;100130.59;;;10.28;94.64
80648;BME280;70012;0.000;0.000;2023-11-19T01:44:03;100134.47;;;10.27;94.50
80648;BME280;70012;0.000;0.000;2023-11-19T01:46:32;100129.47;;;10.23;94.09
80648;BME280;70012;0.000;0.000;2023-11-19T01:49:00;100135.59;;;10.31;94.32
80648;BME280;70012;0.000;0.000;2023-11-19T01:51:27;100133.91;;;10.30;93.85
80648;BME280;70012;0.000;0.000;2023-11-19T01:53:55;100133.44;;;10.33;94.34
80648;BME280;70012;0.000;0.000;2023-11-19T01:56:24;100125.13;;;10.28;94.53
80648;BME280;70012;0.000;0.000;2023-11-19T01:58:54;100127.94;;;10.33;94.02
80648;BME280;70012;0.000;0.000;2023-11-19T02:01:21;100125.75;;;10.35;93.90
80648;BME280;70012;0.000;0.000;2023-11-19T02:03:48;100135.06;;;10.34;94.35
80648;BME280;70012;0.000;0.000;2023-11-19T02:06:15;100137.56;;;10.35;94.14
80648;BME280;70012;0.000;0.000;2023-11-19T02:08:43;100147.66;;;10.35;94.07
80648;BME280;70012;0.000;0.000;2023-11-19T02:11:10;100127.38;;;10.31;93.94
80648;BME280;70012;0.000;0.000;2023-11-19T02:13:39;100091.09;;;10.13;94.24
80648;BME280;70012;0.000;0.000;2023-11-19T02:16:08;100098.81;;;10.21;94.10
80648;BME280;70012;0.000;0.000;2023-11-19T02:18:40;100092.00;;;10.24;93.82
80648;BME280;70012;0.000;0.000;2023-11-19T02:21:14;100096.47;;;10.30;93.95
80648;BME280;70012;0.000;0.000;2023-11-19T02:23:46;100084.09;;;10.28;93.70
80648;BME280;70012;0.000;0.000;2023-11-19T02:29:05;100041.00;;;10.13;93.48
80648;BME280;70012;0.000;0.000;2023-11-19T02:31:36;100070.69;;;10.26;93.44
80648;BME280;70012;0.000;0.000;2023-11-19T02:34:04;100072.03;;;10.23;93.48
80648;BME280;70012;0.000;0.000;2023-11-19T02:36:32;100086.84;;;10.28;93.60
80648;BME280;70012;0.000;0.000;2023-11-19T02:39:05;100042.91;;;10.12;93.82
80648;BME280;70012;0.000;0.000;2023-11-19T02:41:37;100072.03;;;10.23;94.31
80648;BME280;70012;0.000;0.000;2023-11-19T02:44:19;100051.44;;;10.16;94.17
80648;BME280;70012;0.000;0.000;2023-11-19T02:46:47;100083.91;;;10.34;94.17
80648;BME280;70012;0.000;0.000;2023-11-19T02:49:15;100056.97;;;10.21;94.07
80648;BME280;70012;0.000;0.000;2023-11-19T02:51:42;100073.78;;;10.35;93.75
80648;BME280;70012;0.000;0.000;2023-11-19T02:54:10;100083.47;;;10.43;93.61
80648;BME280;70012;0.000;0.000;2023-11-19T02:56:42;100041.13;;;10.23;93.49
80648;BME280;70012;0.000;0.000;2023-11-19T02:59:10;100061.28;;;10.39;93.30
80648;BME280;70012;0.000;0.000;2023-11-19T03:01:54;100048.84;;;10.31;93.14
80648;BME280;70012;0.000;0.000;2023-11-19T03:04:23;100069.22;;;10.40;93.26
80648;BME280;70012;0.000;0.000;2023-11-19T03:06:50;100062.28;;;10.33;93.36
80648;BME280;70012;0.000;0.000;2023-11-19T03:09:21;100055.69;;;10.34;93.43
80648;BME280;70012;0.000;0.000;2023-11-19T03:11:51;100061.44;;;10.32;93.58
80648;BME280;70012;0.000;0.000;2023-11-19T03:14:20;100040.84;;;10.24;93.38
80648;BME280;70012;0.000;0.000;2023-11-19T03:17:03;100042.75;;;10.24;93.11
80648;BME280;70012;0.000;0.000;2023-11-19T03:19:33;100040.81;;;10.19;92.81
80648;BME280;70012;0.000;0.000;2023-11-19T03:22:01;100075.50;;;10.41;92.82
80648;BME280;70012;0.000;0.000;2023-11-19T03:24:28;100075.00;;;10.44;92.61
80648;BME280;70012;0.000;0.000;2023-11-19T03:26:59;100070.03;;;10.41;92.53
80648;BME280;70012;0.000;0.000;2023-11-19T03:29:26;100065.41;;;10.41;91.71
80648;BME280;70012;0.000;0.000;2023-11-19T03:31:52;100066.41;;;10.35;91.95
80648;BME280;70012;0.000;0.000;2023-11-19T03:34:19;100067.22;;;10.36;91.66
80648;BME280;70012;0.000;0.000;2023-11-19T03:36:46;100062.28;;;10.33;91.78
80648;BME280;70012;0.000;0.000;2023-11-19T03:39:12;100063.91;;;10.34;91.36
80648;BME280;70012;0.000;0.000;2023-11-19T03:41:39;100052.69;;;10.30;91.39
80648;BME280;70012;0.000;0.000;2023-11-19T03:44:08;100052.91;;;10.29;91.35
80648;BME280;70012;0.000;0.000;2023-11-19T03:46:34;100055.22;;;10.37;91.09
80648;BME280;70012;0.000;0.000;2023-11-19T03:49:02;100050.81;;;10.36;91.14
80648;BME280;70012;0.000;0.000;2023-11-19T03:51:31;100045.34;;;10.36;90.72
80648;BME280;70012;0.000;0.000;2023-11-19T03:53:58;100057.19;;;10.41;91.00
80648;BME280;70012;0.000;0.000;2023-11-19T03:56:25;100066.22;;;10.42;91.00
80648;BME280;70012;0.000;0.000;2023-11-19T03:58:53;100061.31;;;10.44;90.74
80648;BME280;70012;0.000;0.000;2023-11-19T04:01:20;100069.28;;;10.51;90.96
80648;BME280;70012;0.000;0.000;2023-11-19T04:03:48;100074.03;;;10.61;90.34
80648;BME280;70012;0.000;0.000;2023-11-19T04:06:17;100059.81;;;10.59;90.79
80648;BME280;70012;0.000;0.000;2023-11-19T04:08:51;100049.94;;;10.57;90.73
80648;BME280;70012;0.000;0.000;2023-11-19T04:11:28;100058.81;;;10.70;90.61
80648;BME280;70012;0.000;0.000;2023-11-19T04:13:56;100044.22;;;10.64;90.75
80648;BME280;70012;0.000;0.000;2023-11-19T04:16:28;100048.84;;;10.59;90.58
80648;BME280;70012;0.000;0.000;2023-11-19T04:19:02;100056.66;;;10.77;90.76
80648;BME280;70012;0.000;0.000;2023-11-19T04:21:31;100051.69;;;10.74;90.58
80648;BME280;70012;0.000;0.000;2023-11-19T04:24:05;100036.94;;;10.75;90.77
80648;BME280;70012;0.000;0.000;2023-11-19T04:26:33;100028.47;;;10.77;90.69
80648;BME280;70012;0.000;0.000;2023-11-19T04:29:04;100048.50;;;10.87;90.62
80648;BME280;70012;0.000;0.000;2023-11-19T04:31:37;100069.44;;;10.99;90.34
80648;BME280;70012;0.000;0.000;2023-11-19T04:34:09;100052.97;;;10.94;89.77
80648;BME280;70012;0.000;0.000;2023-11-19T04:36:43;100051.56;;;10.91;89.09
80648;BME280;70012;0.000;0.000;2023-11-19T04:39:13;100049.69;;;10.97;88.63
80648;BME280;70012;0.000;0.000;2023-11-19T04:41:48;100067.53;;;11.04;87.97
80648;BME280;70012;0.000;0.000;2023-11-19T04:44:16;100055.47;;;11.00;87.80
80648;BME280;70012;0.000;0.000;2023-11-19T04:46:43;100074.38;;;11.02;87.73
80648;BME280;70012;0.000;0.000;2023-11-19T04:49:13;100082.88;;;11.05;86.98
80648;BME280;70012;0.000;0.000;2023-11-19T04:51:43;100079.84;;;11.02;86.61
80648;BME280;70012;0.000;0.000;2023-11-19T04:54:12;100095.78;;;11.05;87.01
80648;BME280;70012;0.000;0.000;2023-11-19T04:56:45;100091.38;;;11.04;87.14
80648;BME280;70012;0.000;0.000;2023-11-19T04:59:12;100090.81;;;11.02;86.86
80648;BME280;70012;0.000;0.000;2023-11-19T05:01:47;100090.81;;;11.02;87.23
80648;BME280;70012;0.000;0.000;2023-11-19T05:04:18;100081.75;;;10.96;86.59
80648;BME280;70012;0.000;0.000;2023-11-19T05:06:47;100091.59;;;10.97;86.64
80648;BME280;70012;0.000;0.000;2023-11-19T05:09:14;100079.50;;;10.93;86.24
80648;BME280;70012;0.000;0.000;2023-11-19T05:11:47;100071.53;;;10.86;86.51
80648;BME280;70012;0.000;0.000;2023-11-19T05:14:17;100080.53;;;10.82;86.91
80648;BME280;70012;0.000;0.000;2023-11-19T05:16:56;100084.06;;;10.77;86.40
80648;BME280;70012;0.000;0.000;2023-11-19T05:19:25;100093.94;;;10.83;86.50
80648;BME280;70012;0.000;0.000;2023-11-19T05:21:59;100087.84;;;10.71;86.27
80648;BME280;70012;0.000;0.000;2023-11-19T05:24:49;100078.50;;;10.67;85.46
80648;BME280;70012;0.000;0.000;2023-11-19T05:27:17;100079.63;;;10.71;85.10
80648;BME280;70012;0.000;0.000;2023-11-19T05:29:58;100076.91;;;10.76;84.84
80648;BME280;70012;0.000;0.000;2023-11-19T05:32:44;100100.56;;;10.87;84.75
80648;BME280;70012;0.000;0.000;2023-11-19T05:35:31;100074.44;;;10.75;84.33
80648;BME280;70012;0.000;0.000;2023-11-19T05:38:33;100073.03;;;10.67;84.16
80648;BME280;70012;0.000;0.000;2023-11-19T05:41:23;100090.00;;;10.69;84.05
80648;BME280;70012;0.000;0.000;2023-11-19T05:44:04;100081.78;;;10.69;83.81
80648;BME280;70012;0.000;0.000;2023-11-19T05:46:31;100057.53;;;10.50;83.45
80648;BME280;70012;0.000;0.000;2023-11-19T05:48:58;100055.88;;;10.49;83.10
80648;BME280;70012;0.000;0.000;2023-11-19T05:51:25;100070.75;;;10.59;82.40
80648;BME280;70012;0.000;0.000;2023-11-19T05:53:55;100066.88;;;10.54;82.78
80648;BME280;70012;0.000;0.000;2023-11-19T05:56:24;100060.31;;;10.55;82.60
80648;BME280;70012;0.000;0.000;2023-11-19T05:58:51;100070.75;;;10.59;82.90
80648;BME280;70012;0.000;0.000;2023-11-19T06:01:21;100104.31;;;10.76;82.13
80648;BME280;70012;0.000;0.000;2023-11-19T06:03:52;100096.94;;;10.77;82.18
80648;BME280;70012;0.000;0.000;2023-11-19T06:06:21;100076.59;;;10.72;82.40
80648;BME280;70012;0.000;0.000;2023-11-19T06:08:56;100082.94;;;10.73;82.31
80648;BME280;70012;0.000;0.000;2023-11-19T06:12:00;100065.59;;;10.62;82.56
80648;BME280;70012;0.000;0.000;2023-11-19T06:14:43;100070.22;;;10.62;82.62
80648;BME280;70012;0.000;0.000;2023-11-19T06:17:18;100094.44;;;10.75;83.25
80648;BME280;70012;0.000;0.000;2023-11-19T06:19:59;100088.41;;;10.73;83.57
80648;BME280;70012;0.000;0.000;2023-11-19T06:22:40;100081.28;;;10.72;83.74
80648;BME280;70012;0.000;0.000;2023-11-19T06:25:12;100080.66;;;10.65;83.91
80648;BME280;70012;0.000;0.000;2023-11-19T06:27:47;100085.59;;;10.68;83.75
80648;BME280;70012;0.000;0.000;2023-11-19T06:30:29;100090.59;;;10.76;84.21
80648;BME280;70012;0.000;0.000;2023-11-19T06:33:14;100110.91;;;10.80;84.22
80648;BME280;70012;0.000;0.000;2023-11-19T06:35:41;100121.34;;;10.83;83.68
80648;BME280;70012;0.000;0.000;2023-11-19T06:38:08;100126.50;;;10.80;83.50
80648;BME280;70012;0.000;0.000;2023-11-19T06:40:34;100122.38;;;10.77;83.29
80648;BME280;70012;0.000;0.000;2023-11-19T06:43:02;100126.19;;;10.76;83.12
80648;BME280;70012;0.000;0.000;2023-11-19T06:45:30;100118.72;;;10.66;83.36
80648;BME280;70012;0.000;0.000;2023-11-19T06:47:57;100123.13;;;10.67;82.60
80648;BME280;70012;0.000;0.000;2023-11-19T06:50:25;100133.03;;;10.73;82.35
80648;BME280;70012;0.000;0.000;2023-11-19T06:52:52;100128.91;;;10.71;82.13
80648;BME280;70012;0.000;0.000;2023-11-19T06:55:18;100153.28;;;10.72;82.31
80648;BME280;70012;0.000;0.000;2023-11-19T06:57:45;100129.72;;;10.71;81.99
80648;BME280;70012;0.000;0.000;2023-11-19T07:00:12;100121.47;;;10.66;82.20
80648;BME280;70012;0.000;0.000;2023-11-19T07:02:39;100125.59;;;10.69;81.60
80648;BME280;70012;0.000;0.000;2023-11-19T07:05:06;100127.25;;;10.70;81.95
80648;BME280;70012;0.000;0.000;2023-11-19T07:07:35;100116.75;;;10.62;81.53
80648;BME280;70012;0.000;0.000;2023-11-19T07:10:02;100128.28;;;10.64;81.57
80648;BME280;70012;0.000;0.000;2023-11-19T07:12:31;100110.63;;;10.49;81.55
80648;BME280;70012;0.000;0.000;2023-11-19T07:14:57;100132.09;;;10.63;81.80
80648;BME280;70012;0.000;0.000;2023-11-19T07:17:24;100143.31;;;10.61;81.44
80648;BME280;70012;0.000;0.000;2023-11-19T07:19:51;100128.78;;;10.61;81.14
80648;BME280;70012;0.000;0.000;2023-11-19T07:22:18;100141.94;;;10.59;81.40
80648;BME280;70012;0.000;0.000;2023-11-19T07:24:47;100142.38;;;10.50;81.99
80648;BME280;70012;0.000;0.000;2023-11-19T07:27:14;100158.34;;;10.59;81.99
80648;BME280;70012;0.000;0.000;2023-11-19T07:29:43;100154.47;;;10.54;81.51
80648;BME280;70012;0.000;0.000;2023-11-19T07:32:11;100148.97;;;10.54;82.03
80648;BME280;70012;0.000;0.000;2023-11-19T07:34:37;100151.09;;;10.47;81.68
80648;BME280;70012;0.000;0.000;2023-11-19T07:37:05;100156.06;;;10.50;81.32
80648;BME280;70012;0.000;0.000;2023-11-19T07:39:33;100158.81;;;10.50;81.55
80648;BME280;70012;0.000;0.000;2023-11-19T07:42:30;100163.78;;;10.53;81.66
80648;BME280;70012;0.000;0.000;2023-11-19T07:45:13;100153.34;;;10.50;81.24
80648;BME280;70012;0.000;0.000;2023-11-19T07:47:48;100148.34;;;10.47;81.26
80648;BME280;70012;0.000;0.000;2023-11-19T07:50:48;100172.66;;;10.66;81.45
80648;BME280;70012;0.000;0.000;2023-11-19T07:54:02;100166.63;;;10.64;81.31
80648;BME280;70012;0.000;0.000;2023-11-19T07:57:23;100176.53;;;10.70;81.19
80648;BME280;70012;0.000;0.000;2023-11-19T08:00:34;100203.00;;;10.86;81.84
80648;BME280;70012;0.000;0.000;2023-11-19T08:03:24;100166.03;;;10.62;81.50
80648;BME280;70012;0.000;0.000;2023-11-19T08:06:32;100201.41;;;10.96;80.86
80648;BME280;70012;0.000;0.000;2023-11-19T08:09:22;100192.16;;;10.69;80.97
80648;BME280;70012;0.000;0.000;2023-11-19T08:12:16;100209.09;;;10.94;80.59
80648;BME280;70012;0.000;0.000;2023-11-19T08:15:38;100188.09;;;10.77;79.64
80648;BME280;70012;0.000;0.000;2023-11-19T08:18:21;100165.84;;;10.68;79.43
80648;BME280;70012;0.000;0.000;2023-11-19T08:20:49;100184.28;;;10.78;78.84
80648;BME280;70012;0.000;0.000;2023-11-19T08:23:36;100185.38;;;10.77;79.02
80648;BME280;70012;0.000;0.000;2023-11-19T08:26:54;100209.00;;;10.88;78.44
80648;BME280;70012;0.000;0.000;2023-11-19T08:29:34;100200.81;;;10.88;77.74
80648;BME280;70012;0.000;0.000;2023-11-19T08:32:05;100182.63;;;10.77;77.60
80648;BME280;70012;0.000;0.000;2023-11-19T08:34:35;100190.41;;;10.91;77.30
80648;BME280;70012;0.000;0.000;2023-11-19T08:37:21;100201.97;;;10.93;77.46
80648;BME280;70012;0.000;0.000;2023-11-19T08:39:56;100186.03;;;10.89;77.57
80648;BME280;70012;0.000;0.000;2023-11-19T08:42:37;100184.94;;;10.91;76.82
80648;BME280;70012;0.000;0.000;2023-11-19T08:45:07;100190.41;;;10.91;77.76
80648;BME280;70012;0.000;0.000;2023-11-19T08:47:37;100201.41;;;10.96;77.25
80648;BME280;70012;0.000;0.000;2023-11-19T08:50:07;100191.53;;;10.95;76.55
80648;BME280;70012;0.000;0.000;2023-11-19T08:52:35;100206.63;;;10.97;76.64
80648;BME280;70012;0.000;0.000;2023-11-19T08:55:02;100206.94;;;11.01;77.00
80648;BME280;70012;0.000;0.000;2023-11-19T08:57:29;100212.69;;;10.99;77.30
80648;BME280;70012;0.000;0.000;2023-11-19T08:59:56;100207.50;;;11.03;77.38
80648;BME280;70012;0.000;0.000;2023-11-19T09:02:23;100216.81;;;11.02;76.87
80648;BME280;70012;0.000;0.000;2023-11-19T09:04:51;100203.06;;;10.97;76.81
80648;BME280;70012;0.000;0.000;2023-11-19T09:07:20;100209.09;;;10.94;77.31
80648;BME280;70012;0.000;0.000;2023-11-19T09:09:48;100200.59;;;10.95;76.22
80648;BME280;70012;0.000;0.000;2023-11-19T09:12:14;100216.94;;;11.12;75.44
80648;BME280;70012;0.000;0.000;2023-11-19T09:14:42;100191.50;;;10.89;75.86
80648;BME280;70012;0.000;0.000;2023-11-19T09:17:08;100215.16;;;11.01;75.60
80648;BME280;70012;0.000;0.000;2023-11-19T09:19:37;100211.88;;;10.99;76.76
80648;BME280;70012;0.000;0.000;2023-11-19T09:22:04;100203.19;;;11.07;75.97
80648;BME280;70012;0.000;0.000;2023-11-19T09:24:31;100203.06;;;10.97;76.16
80648;BME280;70012;0.000;0.000;2023-11-19T09:26:57;100193.84;;;11.08;75.74
80648;BME280;70012;0.000;0.000;2023-11-19T09:29:24;100201.53;;;11.06;74.98
80648;BME280;70012;0.000;0.000;2023-11-19T09:31:51;100198.53;;;11.08;75.04
80648;BME280;70012;0.000;0.000;2023-11-19T09:34:18;100180.97;;;11.03;75.85
80648;BME280;70012;0.000;0.000;2023-11-19T09:36:47;100193.84;;;11.08;75.19
80648;BME280;70012;0.000;0.000;2023-11-19T09:39:14;100205.53;;;11.26;75.17
80648;BME280;70012;0.000;0.000;2023-11-19T09:41:44;100205.53;;;11.26;76.03
80648;BME280;70012;0.000;0.000;2023-11-19T09:44:49;100200.06;;;11.26;75.44
80648;BME280;70012;0.000;0.000;2023-11-19T09:47:55;100228.13;;;11.43;75.28
80648;BME280;70012;0.000;0.000;2023-11-19T09:54:57;100183.31;;;11.22;74.96
80648;BME280;70012;0.000;0.000;2023-11-19T09:57:47;100220.47;;;11.45;73.98
80648;BME280;70012;0.000;0.000;2023-11-19T10:01:28;100235.91;;;11.57;74.20
80648;BME280;70012;0.000;0.000;2023-11-19T10:04:48;100228.00;;;11.60;74.44
80648;BME280;70012;0.000;0.000;2023-11-19T10:08:02;100191.94;;;11.41;73.61
80648;BME280;70012;0.000;0.000;2023-11-19T10:11:06;100214.84;;;11.62;73.72
80648;BME280;70012;0.000;0.000;2023-11-19T10:18:23;100210.56;;;11.77;74.12
80648;BME280;70012;0.000;0.000;2023-11-19T10:22:01;100210.31;;;11.83;73.30
80648;BME280;70012;0.000;0.000;2023-11-19T10:25:04;100180.03;;;11.68;73.24
80648;BME280;70012;0.000;0.000;2023-11-19T10:28:20;100187.78;;;11.76;73.72
80648;BME280;70012;0.000;0.000;2023-11-19T10:31:25;100212.84;;;11.95;74.03
80648;BME280;70012;0.000;0.000;2023-11-19T10:38:17;100183.78;;;11.94;72.93
80648;BME280;70012;0.000;0.000;2023-11-19T10:41:07;100171.41;;;11.87;72.78
80648;BME280;70012;0.000;0.000;2023-11-19T10:44:25;100194.00;;;12.04;72.17
80648;BME280;70012;0.000;0.000;2023-11-19T10:47:47;100192.34;;;12.03;72.07
80648;BME280;70012;0.000;0.000;2023-11-19T10:50:30;100171.97;;;11.94;71.55
80648;BME280;70012;0.000;0.000;2023-11-19T10:53:29;100171.47;;;12.02;70.63
80648;BME280;70012;0.000;0.000;2023-11-19T10:56:44;100197.94;;;12.24;70.87
80648;BME280;70012;0.000;0.000;2023-11-19T10:59:55;100210.59;;;12.35;71.12
80648;BME280;70012;0.000;0.000;2023-11-19T11:03:26;100167.72;;;12.19;71.48
80648;BME280;70012;0.000;0.000;2023-11-19T11:06:33;100165.84;;;12.35;70.27
80648;BME280;70012;0.000;0.000;2023-11-19T11:09:31;100183.19;;;12.56;69.38
80648;BME280;70012;0.000;0.000;2023-11-19T11:12:41;100202.75;;;12.75;68.75
80648;BME280;70012;0.000;0.000;2023-11-19T11:16:09;100212.94;;;12.79;67.93
80648;BME280;70012;0.000;0.000;2023-11-19T11:19:26;100205.50;;;12.75;68.54
80648;BME280;70012;0.000;0.000;2023-11-19T11:36:31;100228.28;;;12.60;68.27
80648;BME280;70012;0.000;0.000;2023-11-19T11:39:28;100217.81;;;12.57;68.46
80648;BME280;70012;0.000;0.000;2023-11-19T11:45:17;100207.91;;;12.51;68.93
80648;BME280;70012;0.000;0.000;2023-11-19T11:48:10;100198.00;;;12.44;69.18
80648;BME280;70012;0.000;0.000;2023-11-19T11:50:57;100184.28;;;12.39;69.60
80648;BME280;70012;0.000;0.000;2023-11-19T11:53:41;100182.63;;;12.38;69.86
80648;BME280;70012;0.000;0.000;2023-11-19T11:56:13;100188.66;;;12.40;69.82
80648;BME280;70012;0.000;0.000;2023-11-19T11:58:49;100182.06;;;12.41;70.79
80648;BME280;70012;0.000;0.000;2023-11-19T12:02:00;100167.53;;;12.46;71.48
80648;BME280;70012;0.000;0.000;2023-11-19T12:04:52;100176.09;;;12.60;70.32
80648;BME280;70012;0.000;0.000;2023-11-19T12:08:39;100148.63;;;12.60;70.33
80648;BME280;70012;0.000;0.000;2023-11-19T12:11:25;100174.47;;;12.79;70.01
80648;BME280;70012;0.000;0.000;2023-11-19T12:14:13;100162.41;;;12.80;69.84
80648;BME280;70012;0.000;0.000;2023-11-19T12:17:36;100174.47;;;12.74;68.95
80648;BME280;70012;0.000;0.000;2023-11-19T12:20:20;100163.22;;;12.71;68.92
80648;BME280;70012;0.000;0.000;2023-11-19T12:23:21;100151.94;;;12.67;69.72
80648;BME280;70012;0.000;0.000;2023-11-19T12:26:01;100141.47;;;12.59;70.34
80648;BME280;70012;0.000;0.000;2023-11-19T12:28:58;100148.06;;;12.63;69.93
80648;BME280;70012;0.000;0.000;2023-11-19T12:31:53;100131.31;;;12.54;69.44
80648;BME280;70012;0.000;0.000;2023-11-19T12:34:31;100123.06;;;12.44;70.05
80648;BME280;70012;0.000;0.000;2023-11-19T12:37:05;100126.09;;;12.47;69.36
80648;BME280;70012;0.000;0.000;2023-11-19T12:39:39;100127.19;;;12.46;69.92
80648;BME280;70012;0.000;0.000;2023-11-19T12:42:09;100124.44;;;12.57;70.24
80648;BME280;70012;0.000;0.000;2023-11-19T12:45:05;100125.81;;;12.59;70.11
80648;BME280;70012;0.000;0.000;2023-11-19T12:47:49;100104.13;;;12.47;70.26
80648;BME280;70012;0.000;0.000;2023-11-19T12:50:19;100155.50;;;12.73;70.65
80648;BME280;70012;0.000;0.000;2023-11-19T12:52:58;100134.91;;;12.75;69.06
80648;BME280;70012;0.000;0.000;2023-11-19T12:55:27;100143.13;;;12.75;69.00
80648;BME280;70012;0.000;0.000;2023-11-19T12:57:56;100148.63;;;12.65;69.12
80648;BME280;70012;0.000;0.000;2023-11-19T13:00:26;100158.81;;;12.70;69.50
80648;BME280;70012;0.000;0.000;2023-11-19T13:02:56;100160.72;;;12.64;69.79
80648;BME280;70012;0.000;0.000;2023-11-19T13:05:30;100166.75;;;12.61;70.38
80648;BME280;70012;0.000;0.000;2023-11-19T13:08:03;100152.47;;;12.54;70.67
80648;BME280;70012;0.000;0.000;2023-11-19T13:10:33;100157.41;;;12.57;70.97
80648;BME280;70012;0.000;0.000;2023-11-19T13:13:05;100151.34;;;12.55;71.61
80648;BME280;70012;0.000;0.000;2023-11-19T13:16:10;100153.56;;;12.53;71.53
80648;BME280;70012;0.000;0.000;2023-11-19T13:19:13;100134.59;;;12.46;72.06
80648;BME280;70012;0.000;0.000;2023-11-19T13:22:26;100131.03;;;12.51;72.87
80648;BME280;70012;0.000;0.000;2023-11-19T13:25:57;100134.59;;;12.46;72.65
80648;BME280;70012;0.000;0.000;2023-11-19T13:29:29;100146.94;;;12.38;72.79
80648;BME280;70012;0.000;0.000;2023-11-19T13:32:39;100148.56;;;12.34;73.28
80648;BME280;70012;0.000;0.000;2023-11-19T13:35:40;100151.56;;;12.32;72.53
80648;BME280;70012;0.000;0.000;2023-11-19T13:38:07;100143.03;;;12.24;72.94
80648;BME280;70012;0.000;0.000;2023-11-19T13:40:37;100143.59;;;12.31;72.99
80648;BME280;70012;0.000;0.000;2023-11-19T13:43:05;100135.38;;;12.31;73.37
80648;BME280;70012;0.000;0.000;2023-11-19T13:45:32;100120.00;;;12.30;73.31
80648;BME280;70012;0.000;0.000;2023-11-19T13:47:59;100118.34;;;12.29;72.54
80648;BME280;70012;0.000;0.000;2023-11-19T13:50:26;100110.66;;;12.31;72.67
80648;BME280;70012;0.000;0.000;2023-11-19T13:52:55;100121.66;;;12.31;72.72
80648;BME280;70012;0.000;0.000;2023-11-19T13:55:22;100106.25;;;12.20;72.77
80648;BME280;70012;0.000;0.000;2023-11-19T13:57:50;100113.94;;;12.23;73.00
80648;BME280;70012;0.000;0.000;2023-11-19T14:00:19;100091.41;;;12.10;72.41
80648;BME280;70012;0.000;0.000;2023-11-19T14:02:51;100109.28;;;12.23;71.69
80648;BME280;70012;0.000;0.000;2023-11-19T14:05:19;100104.03;;;12.16;71.00
80648;BME280;70012;0.000;0.000;2023-11-19T14:08:04;100101.28;;;12.11;72.03
80648;BME280;70012;0.000;0.000;2023-11-19T14:10:53;100101.28;;;12.11;70.70
80648;BME280;70012;0.000;0.000;2023-11-19T14:13:23;100101.81;;;12.08;71.36
80648;BME280;70012;0.000;0.000;2023-11-19T14:15:50;100087.81;;;12.05;70.92
80648;BME280;70012;0.000;0.000;2023-11-19T14:18:19;100105.69;;;12.17;69.46
80648;BME280;70012;0.000;0.000;2023-11-19T14:20:49;100104.59;;;12.13;70.76
80648;BME280;70012;0.000;0.000;2023-11-19T14:23:16;100103.50;;;12.20;70.81
80648;BME280;70012;0.000;0.000;2023-11-19T14:25:43;100110.66;;;12.21;69.98